Time;durP1;ratioP1;P1;durP2;ratioP2;P2;SDS_P1;SDS_P2;PMS_P1;PMS_P2;Temp;Humidity;BMP_temperature;BMP_pressure;BME280_temperature;BME280_humidity;BME280_pressure;Samples;Min_cycle;Max_cycle;Signal;HPM_P1;HPM_P2
2021/01/04 00:02:28;;;;;;;16.73;13.70;;;;;;;2.25;100.00;100251.31;5059834;28;20550;-33
2021/01/04 00:05:22;;;;;;;17.50;14.20;;;;;;;2.19;100.00;100256.28;5059294;28;20211;-33
2021/01/04 00:08:38;;;;;;;20.43;14.83;;;;;;;2.21;100.00;100249.50;5060264;28;20599;-33
2021/01/04 00:11:51;;;;;;;21.37;14.77;;;;;;;2.13;100.00;100250.16;5045402;28;20208;-33
2021/01/04 00:14:54;;;;;;;25.67;16.87;;;;;;;2.11;100.00;100252.69;5058435;28;20227;-33
2021/01/04 00:18:11;;;;;;;21.93;15.73;;;;;;;2.17;100.00;100247.72;5058822;28;20211;-33
2021/01/04 00:21:01;;;;;;;18.13;13.73;;;;;;;2.08;100.00;100245.81;5058602;28;20204;-33
2021/01/04 00:24:04;;;;;;;21.63;15.67;;;;;;;2.42;100.00;100249.16;5059059;28;20204;-32
2021/01/04 00:26:58;;;;;;;21.00;14.73;;;;;;;2.23;100.00;100247.00;5058442;28;20231;-32
2021/01/04 00:29:46;;;;;;;22.30;15.50;;;;;;;2.23;100.00;100247.88;5058079;28;20193;-33
2021/01/04 00:32:36;;;;;;;19.53;14.47;;;;;;;2.20;100.00;100242.69;5058207;28;20255;-33
2021/01/04 00:35:25;;;;;;;17.13;13.33;;;;;;;1.93;100.00;100247.97;5058807;28;20278;-32
2021/01/04 00:38:33;;;;;;;18.20;14.27;;;;;;;2.08;100.00;100248.34;5059040;28;20257;-33
2021/01/04 00:41:24;;;;;;;20.43;14.30;;;;;;;1.96;100.00;100257.41;5058608;28;20204;-33
2021/01/04 00:44:16;;;;;;;20.17;14.37;;;;;;;2.01;100.00;100256.66;5058204;28;20208;-34
2021/01/04 00:47:11;;;;;;;20.03;13.93;;;;;;;2.07;100.00;100256.84;5058271;28;20262;-33
2021/01/04 00:50:05;;;;;;;22.90;15.50;;;;;;;2.17;100.00;100254.53;5058320;28;20484;-35
2021/01/04 00:53:00;;;;;;;22.23;15.53;;;;;;;2.08;100.00;100263.66;5058434;28;20220;-32
2021/01/04 00:56:06;;;;;;;20.90;14.90;;;;;;;2.03;100.00;100257.56;5058239;28;20630;-33
2021/01/04 00:59:05;;;;;;;24.60;16.23;;;;;;;1.91;100.00;100254.72;5058331;28;20270;-32
2021/01/04 01:02:23;;;;;;;23.80;15.97;;;;;;;1.83;100.00;100260.44;5058470;28;20226;-33
2021/01/04 01:05:19;;;;;;;22.37;14.97;;;;;;;1.98;100.00;100258.31;5066983;28;20232;-32
2021/01/04 01:08:24;;;;;;;23.73;15.43;;;;;;;1.96;100.00;100259.94;5058837;28;20350;-33
2021/01/04 01:11:14;;;;;;;24.77;16.53;;;;;;;1.93;100.00;100259.88;5058446;28;20675;-33
2021/01/04 01:14:08;;;;;;;21.67;15.50;;;;;;;2.00;100.00;100264.28;5057748;28;20208;-33
2021/01/04 01:17:13;;;;;;;24.57;16.53;;;;;;;1.91;100.00;100270.03;5057812;28;20258;-32
2021/01/04 01:20:02;;;;;;;24.43;16.17;;;;;;;1.92;100.00;100265.78;5058084;28;20258;-33
2021/01/04 01:22:49;;;;;;;24.30;15.47;;;;;;;1.98;100.00;100263.41;5057895;28;20207;-33
2021/01/04 01:25:43;;;;;;;24.50;16.23;;;;;;;2.01;100.00;100261.78;5057662;28;20200;-33
2021/01/04 01:28:55;;;;;;;24.27;16.20;;;;;;;2.08;100.00;100262.78;5057782;28;20200;-33
2021/01/04 01:32:28;;;;;;;22.33;15.60;;;;;;;1.96;100.00;100265.91;5058251;28;20254;-33
2021/01/04 01:35:26;;;;;;;25.03;17.30;;;;;;;2.05;100.00;100258.47;5058260;28;20227;-33
2021/01/04 01:38:43;;;;;;;24.47;15.70;;;;;;;2.12;100.00;100269.72;5058255;28;20200;-33
2021/01/04 01:42:22;;;;;;;28.27;16.97;;;;;;;2.17;100.00;100278.34;5052885;28;20594;-33
2021/01/04 01:45:17;;;;;;;26.43;17.80;;;;;;;2.02;100.00;100275.38;5022844;28;20262;-34
2021/01/04 01:48:08;;;;;;;22.20;15.63;;;;;;;2.11;100.00;100274.78;5058420;28;20271;-34
2021/01/04 01:51:04;;;;;;;21.53;15.33;;;;;;;2.03;100.00;100272.88;5057896;28;20197;-33
2021/01/04 01:54:03;;;;;;;29.90;18.27;;;;;;;1.95;100.00;100276.06;5061515;28;20196;-34
2021/01/04 01:57:06;;;;;;;27.77;16.97;;;;;;;1.95;100.00;100278.63;5061621;28;20270;-33
2021/01/04 02:00:16;;;;;;;26.77;17.63;;;;;;;2.01;100.00;100283.84;5061120;28;20288;-33
2021/01/04 02:03:07;;;;;;;26.50;17.10;;;;;;;1.89;100.00;100283.56;5061400;28;20203;-33
2021/01/04 02:06:20;;;;;;;29.00;17.30;;;;;;;1.92;100.00;100278.53;5060985;28;20200;-34
2021/01/04 02:09:10;;;;;;;24.73;16.40;;;;;;;2.12;100.00;100279.06;5060907;28;20698;-33
2021/01/04 02:12:01;;;;;;;27.37;17.80;;;;;;;1.86;100.00;100280.91;5060835;28;20200;-33
2021/01/04 02:14:58;;;;;;;29.60;18.03;;;;;;;2.11;100.00;100277.31;5060726;28;20318;-33
2021/01/04 02:18:09;;;;;;;26.83;17.73;;;;;;;1.99;100.00;100280.44;5060875;28;20220;-33
2021/01/04 02:21:36;;;;;;;28.57;18.40;;;;;;;2.00;100.00;100284.69;5061142;28;20200;-33
2021/01/04 02:24:26;;;;;;;25.67;16.23;;;;;;;2.03;100.00;100277.13;5043385;28;20454;-33
2021/01/04 02:27:19;;;;;;;27.07;16.67;;;;;;;2.12;100.00;100285.03;5062312;28;20610;-34
2021/01/04 02:30:07;;;;;;;27.20;17.20;;;;;;;2.12;100.00;100279.91;5062004;28;20287;-33
2021/01/04 02:32:53;;;;;;;30.87;18.27;;;;;;;1.96;100.00;100281.22;5061486;28;20334;-34
2021/01/04 02:35:41;;;;;;;32.47;19.17;;;;;;;2.15;100.00;100284.22;5061507;28;20228;-33
2021/01/04 02:38:32;;;;;;;29.83;18.97;;;;;;;2.04;100.00;100284.81;5060935;28;20205;-33
2021/01/04 02:41:20;;;;;;;26.57;17.43;;;;;;;2.12;100.00;100285.03;5061162;28;20208;-33
2021/01/04 02:44:06;;;;;;;23.43;16.37;;;;;;;2.28;100.00;100281.16;5061497;28;20298;-34
2021/01/04 02:47:10;;;;;;;28.97;19.37;;;;;;;2.10;100.00;100285.81;5061062;28;20212;-33
2021/01/04 02:50:08;;;;;;;24.03;16.43;;;;;;;2.22;100.00;100288.66;5061690;28;20584;-33
2021/01/04 02:53:23;;;;;;;29.33;18.30;;;;;;;2.26;100.00;100281.13;5060565;28;20201;-32
2021/01/04 02:56:17;;;;;;;28.30;17.67;;;;;;;2.26;100.00;100281.13;5060481;28;20251;-36
2021/01/04 02:59:15;;;;;;;25.60;16.87;;;;;;;2.37;100.00;100287.38;5061033;28;20192;-33
2021/01/04 03:02:06;;;;;;;29.60;19.10;;;;;;;2.23;100.00;100280.16;5060410;28;20196;-33
2021/01/04 03:04:54;;;;;;;28.57;17.47;;;;;;;2.21;100.00;100285.22;5061271;28;20501;-33
2021/01/04 03:07:40;;;;;;;25.50;16.37;;;;;;;2.08;100.00;100288.31;5060290;28;20630;-33
2021/01/04 03:10:30;;;;;;;22.13;15.20;;;;;;;2.17;100.00;100290.25;5060235;28;20192;-33
2021/01/04 03:13:22;;;;;;;27.17;17.80;;;;;;;2.34;100.00;100288.97;5060922;28;20192;-33
2021/01/04 03:16:16;;;;;;;22.37;15.30;;;;;;;2.13;100.00;100294.41;5060255;28;20225;-33
2021/01/04 03:19:05;;;;;;;22.93;15.37;;;;;;;2.39;100.00;100285.72;5060220;28;20206;-33
2021/01/04 03:22:00;;;;;;;23.17;16.40;;;;;;;2.34;100.00;100286.41;5060267;28;20677;-33
2021/01/04 03:24:48;;;;;;;22.67;15.83;;;;;;;2.35;100.00;100280.50;5059945;28;20200;-33
2021/01/04 03:27:34;;;;;;;24.20;15.87;;;;;;;2.43;100.00;100282.38;5059427;28;20232;-33
2021/01/04 03:30:21;;;;;;;21.10;14.20;;;;;;;2.62;100.00;100280.25;5059939;28;20216;-33
2021/01/04 03:33:08;;;;;;;22.17;15.73;;;;;;;2.38;100.00;100283.13;5059855;28;20197;-33
2021/01/04 03:35:55;;;;;;;21.10;14.70;;;;;;;2.34;100.00;100282.19;5061247;28;20304;-33
2021/01/04 03:38:42;;;;;;;24.63;16.97;;;;;;;2.18;100.00;100289.41;5059618;28;20207;-32
2021/01/04 03:41:29;;;;;;;20.97;14.07;;;;;;;2.45;100.00;100294.31;5059357;28;20243;-33
2021/01/04 03:44:15;;;;;;;22.97;15.57;;;;;;;2.52;100.00;100296.22;5059421;28;20205;-33
2021/01/04 03:47:01;;;;;;;20.60;14.67;;;;;;;2.41;100.00;100288.28;5061113;28;20201;-33
2021/01/04 03:49:49;;;;;;;21.27;15.17;;;;;;;2.49;100.00;100291.03;5059679;28;20201;-33
2021/01/04 03:52:35;;;;;;;19.27;14.17;;;;;;;2.62;100.00;100288.78;5059201;28;20196;-32
2021/01/04 03:55:22;;;;;;;20.60;14.13;;;;;;;2.57;100.00;100284.44;5059304;28;20505;-33
2021/01/04 03:58:08;;;;;;;24.93;17.03;;;;;;;2.46;100.00;100285.84;5059044;28;20486;-33
2021/01/04 04:00:54;;;;;;;23.00;15.40;;;;;;;2.49;100.00;100289.34;5059173;28;20200;-33
2021/01/04 04:03:40;;;;;;;21.37;16.40;;;;;;;2.28;100.00;100282.03;5059649;28;20195;-33
2021/01/04 04:06:27;;;;;;;23.03;15.67;;;;;;;2.40;100.00;100281.44;5058732;28;20219;-33
2021/01/04 04:09:15;;;;;;;21.57;15.40;;;;;;;2.57;100.00;100282.72;5058609;28;20192;-33
2021/01/04 04:12:02;;;;;;;22.27;15.00;;;;;;;2.57;100.00;100286.97;5059254;28;20196;-33
2021/01/04 04:14:49;;;;;;;21.13;15.60;;;;;;;2.61;100.00;100281.09;5057758;28;20208;-34
2021/01/04 04:17:35;;;;;;;23.23;15.73;;;;;;;2.52;100.00;100284.31;5058323;28;20239;-33
2021/01/04 04:20:23;;;;;;;24.17;16.83;;;;;;;2.29;100.00;100273.53;5059220;28;20205;-33
2021/01/04 04:23:10;;;;;;;19.73;14.07;;;;;;;2.34;100.00;100283.88;5061498;28;20260;-33
2021/01/04 04:25:56;;;;;;;28.57;17.03;;;;;;;2.61;100.00;100291.31;5059821;28;20236;-33
2021/01/04 04:28:43;;;;;;;27.07;18.03;;;;;;;2.43;100.00;100290.03;5058969;28;20531;-32
2021/01/04 04:31:29;;;;;;;24.13;16.40;;;;;;;2.51;100.00;100290.25;5058884;28;20657;-42
2021/01/04 04:34:18;;;;;;;23.07;15.73;;;;;;;2.53;100.00;100288.59;5059019;28;20200;-33
2021/01/04 04:37:06;;;;;;;23.43;15.97;;;;;;;2.39;100.00;100297.63;5059092;28;20200;-32
2021/01/04 04:39:53;;;;;;;25.97;15.90;;;;;;;2.41;100.00;100296.78;5059133;28;20197;-32
2021/01/04 04:42:39;;;;;;;23.70;16.27;;;;;;;2.54;100.00;100299.66;5059099;28;20255;-33
2021/01/04 04:45:26;;;;;;;24.77;15.77;;;;;;;2.40;100.00;100294.19;5058558;28;20300;-33
2021/01/04 04:48:52;;;;;;;24.63;17.27;;;;;;;2.21;100.00;100300.53;5058797;28;20415;-32
2021/01/04 04:52:03;;;;;;;24.03;16.07;;;;;;;2.22;100.00;100306.50;5058563;28;20614;-32
2021/01/04 04:55:05;;;;;;;21.40;15.47;;;;;;;2.33;100.00;100302.56;5058174;28;20536;-32
2021/01/04 04:58:22;;;;;;;22.50;15.90;;;;;;;2.17;100.00;100303.88;5058807;28;20192;-33
2021/01/04 05:01:16;;;;;;;21.07;13.77;;;;;;;2.28;100.00;100307.53;5058410;28;20295;-32
2021/01/04 05:04:28;;;;;;;21.97;15.03;;;;;;;2.19;100.00;100306.47;5059673;28;20281;-33
2021/01/04 05:07:28;;;;;;;26.00;16.10;;;;;;;2.04;100.00;100301.81;5058345;28;20295;-33
2021/01/04 05:10:19;;;;;;;29.23;17.13;;;;;;;2.08;100.00;100301.94;5058750;28;20205;-33
2021/01/04 05:13:18;;;;;;;23.13;15.40;;;;;;;2.09;100.00;100302.78;5058925;28;20201;-32
2021/01/04 05:16:08;;;;;;;25.87;15.70;;;;;;;1.97;100.00;100299.94;5057952;28;20630;-32
2021/01/04 05:19:21;;;;;;;24.07;16.47;;;;;;;2.28;100.00;100307.53;5058623;28;20611;-32
2021/01/04 05:22:35;;;;;;;26.23;16.97;;;;;;;2.19;100.00;100306.47;5058966;28;20350;-33
2021/01/04 05:25:55;;;;;;;26.43;16.13;;;;;;;2.04;100.00;100306.91;5060052;28;20302;-33
2021/01/04 05:29:15;;;;;;;28.13;18.27;;;;;;;1.95;100.00;100310.09;5062774;28;20239;-34
2021/01/04 05:32:27;;;;;;;25.67;15.60;;;;;;;2.10;100.00;100314.72;5062926;28;20204;-32
2021/01/04 05:35:16;;;;;;;22.47;14.53;;;;;;;1.97;100.00;100305.03;5061960;28;20236;-33
2021/01/04 05:38:10;;;;;;;28.90;17.63;;;;;;;1.94;100.00;100307.50;5063198;28;20199;-33
2021/01/04 05:41:17;;;;;;;30.80;17.03;;;;;;;2.08;100.00;100312.13;5061756;28;20836;-33
2021/01/04 05:44:22;;;;;;;28.33;16.33;;;;;;;2.10;100.00;100309.63;5062273;28;20303;-33
2021/01/04 05:47:26;;;;;;;33.83;18.03;;;;;;;1.90;100.00;100313.34;5061740;28;20200;-33
2021/01/04 05:50:24;;;;;;;25.20;15.63;;;;;;;1.95;100.00;100309.22;5061847;28;20496;-32
2021/01/04 05:53:10;;;;;;;23.97;15.47;;;;;;;2.05;100.00;100309.50;5061808;28;20196;-33
2021/01/04 05:55:57;;;;;;;24.07;16.20;;;;;;;2.05;100.00;100308.63;5061520;28;20271;-33
2021/01/04 05:58:44;;;;;;;26.70;15.93;;;;;;;1.88;100.00;100315.84;5061354;28;20339;-33
2021/01/04 06:01:31;;;;;;;29.20;15.73;;;;;;;2.15;100.00;100320.81;5060865;28;20204;-34
2021/01/04 06:04:26;;;;;;;27.10;14.93;;;;;;;2.09;100.00;100323.19;5061138;28;20599;-33
2021/01/04 06:07:22;;;;;;;32.07;17.67;;;;;;;2.04;100.00;100327.31;5061260;28;20216;-32
2021/01/04 06:10:18;;;;;;;28.85;20.88;;;;;;;2.15;100.00;100327.59;5059699;28;20501;-32
2021/01/04 06:13:23;;;;;;;25.97;16.40;;;;;;;2.04;100.00;100328.19;5061269;28;20618;-33
2021/01/04 06:16:14;;;;;;;26.07;14.97;;;;;;;2.00;100.00;100331.47;5060602;28;20232;-33
2021/01/04 06:19:10;;;;;;;22.80;15.13;;;;;;;2.16;100.00;100332.75;5060814;28;20294;-33
2021/01/04 06:21:58;;;;;;;27.53;16.70;;;;;;;1.97;100.00;100338.19;5061718;28;20462;-33
2021/01/04 06:24:46;;;;;;;29.70;17.40;;;;;;;1.90;100.00;100339.69;5060753;28;20252;-33
2021/01/04 06:27:35;;;;;;;26.17;16.40;;;;;;;2.02;100.00;100331.50;5060592;28;20247;-33
2021/01/04 06:30:29;;;;;;;25.90;15.53;;;;;;;1.99;100.00;100339.97;5062049;28;20192;-33
2021/01/04 06:33:21;;;;;;;30.43;17.90;;;;;;;1.77;100.00;100337.66;5062209;28;20220;-32
2021/01/04 06:36:15;;;;;;;24.13;14.83;;;;;;;1.62;100.00;100337.19;5060426;28;20231;-33
2021/01/04 06:39:11;;;;;;;24.67;15.57;;;;;;;1.86;100.00;100339.56;5062214;28;20208;-34
2021/01/04 06:42:09;;;;;;;29.93;17.47;;;;;;;1.77;100.00;100347.00;5060732;28;20192;-33
2021/01/04 06:45:07;;;;;;;31.27;18.37;;;;;;;1.93;100.00;100342.34;5060918;28;20271;-33
2021/01/04 06:48:04;;;;;;;27.37;16.67;;;;;;;1.88;100.00;100343.03;5060850;28;20220;-33
2021/01/04 06:51:14;;;;;;;28.57;17.07;;;;;;;1.90;100.00;100349.03;5061850;28;20293;-33
2021/01/04 06:54:39;;;;;;;32.87;17.50;;;;;;;1.86;100.00;100354.88;5061215;28;20513;-33
2021/01/04 06:58:00;;;;;;;35.20;17.50;;;;;;;2.01;100.00;100358.69;5060745;28;20258;-32
2021/01/04 07:01:07;;;;;;;34.30;18.87;;;;;;;1.91;100.00;100358.41;5061771;28;20204;-32
2021/01/04 07:04:16;;;;;;;34.57;18.33;;;;;;;1.81;100.00;100364.06;5060754;28;20262;-33
2021/01/04 07:07:27;;;;;;;32.83;17.50;;;;;;;1.94;100.00;100369.56;5061091;28;20447;-33
2021/01/04 07:10:40;;;;;;;34.97;19.63;;;;;;;1.88;100.00;100363.44;5061008;28;20547;-32
2021/01/04 07:13:50;;;;;;;35.70;19.53;;;;;;;1.84;100.00;100370.13;5059943;28;20208;-32
2021/01/04 07:16:59;;;;;;;32.33;17.53;;;;;;;1.78;100.00;100369.97;5061036;28;20323;-32
2021/01/04 07:20:12;;;;;;;34.93;19.90;;;;;;;1.94;100.00;100379.78;5060176;28;20953;-33
2021/01/04 07:23:24;;;;;;;39.83;20.20;;;;;;;1.73;100.00;100377.50;5059780;28;20557;-33
2021/01/04 07:26:26;;;;;;;40.40;20.83;;;;;;;1.88;100.00;100381.28;5060117;28;20298;-33
2021/01/04 07:29:37;;;;;;;40.50;20.50;;;;;;;1.97;100.00;100384.97;5060373;28;20207;-34
2021/01/04 07:32:31;;;;;;;39.57;21.27;;;;;;;1.96;100.00;100384.91;5045233;28;20276;-33
2021/01/04 07:35:20;;;;;;;38.03;19.80;;;;;;;1.95;100.00;100388.28;5059844;28;20490;-34
2021/01/04 07:38:23;;;;;;;34.43;18.70;;;;;;;1.97;100.00;100386.66;5059246;28;20246;-33
2021/01/04 07:41:35;;;;;;;36.17;20.13;;;;;;;2.11;100.00;100390.44;5058993;28;20785;-33
2021/01/04 07:45:10;;;;;;;38.40;21.03;;;;;;;1.99;100.00;100388.44;5059928;28;20454;-34
2021/01/04 07:48:29;;;;;;;37.90;19.83;;;;;;;2.03;100.00;100391.91;5059814;28;20200;-34
2021/01/04 07:51:53;;;;;;;35.00;19.93;;;;;;;2.02;100.00;100395.28;5059413;28;20242;-34
2021/01/04 07:55:07;;;;;;;37.67;19.33;;;;;;;2.02;100.00;100395.28;5060540;28;20200;-34
2021/01/04 07:58:38;;;;;;;37.03;19.70;;;;;;;1.94;100.00;100395.09;5060737;28;20196;-34
2021/01/04 08:01:57;;;;;;;39.20;19.23;;;;;;;2.08;100.00;100400.56;5059531;28;20546;-36
2021/01/04 08:05:22;;;;;;;35.13;18.53;;;;;;;2.11;100.00;100403.19;5059889;28;20490;-33
2021/01/04 08:08:43;;;;;;;41.20;20.57;;;;;;;2.19;100.00;100406.84;5060842;28;20216;-34
2021/01/04 08:12:08;;;;;;;35.83;18.53;;;;;;;2.13;100.00;100406.66;5138175;27;20846;-33
2021/01/04 08:15:28;;;;;;;38.10;19.70;;;;;;;2.16;100.00;100408.44;5136566;28;20213;-33
2021/01/04 08:18:16;;;;;;;37.33;18.07;;;;;;;2.16;100.00;100408.44;5137396;28;20197;-33
2021/01/04 08:21:09;;;;;;;38.77;20.97;;;;;;;2.20;100.00;100416.19;5137171;28;20193;-34
2021/01/04 08:24:06;;;;;;;41.80;19.83;;;;;;;2.27;100.00;100409.56;5137328;28;20278;-32
2021/01/04 08:27:12;;;;;;;37.27;19.40;;;;;;;2.31;100.00;100417.34;5136788;28;20202;-33
2021/01/04 08:30:11;;;;;;;39.87;20.03;;;;;;;2.30;100.00;100420.72;5136610;28;20221;-32
2021/01/04 08:33:07;;;;;;;30.83;18.50;;;;;;;2.16;100.00;100418.63;5136771;28;20798;-33
2021/01/04 08:35:54;;;;;;;39.00;19.97;;;;;;;2.32;100.00;100423.31;5136742;28;20202;-33
2021/01/04 08:38:45;;;;;;;38.20;19.43;;;;;;;2.27;100.00;100420.66;5136433;28;20201;-34
2021/01/04 08:41:41;;;;;;;46.57;22.30;;;;;;;2.35;100.00;100416.63;5136663;28;20496;-33
2021/01/04 08:44:36;;;;;;;51.53;28.47;;;;;;;2.54;100.00;100414.53;5135485;28;20209;-33
2021/01/04 08:47:30;;;;;;;49.03;25.07;;;;;;;2.24;100.00;100415.44;5140694;28;20212;-33
2021/01/04 08:50:33;;;;;;;55.17;30.77;;;;;;;2.54;100.00;100412.00;5139510;28;20338;-32
2021/01/04 08:53:22;;;;;;;60.63;33.33;;;;;;;2.57;100.00;100414.63;5136872;28;20220;-33
2021/01/04 08:56:26;;;;;;;47.27;25.70;;;;;;;2.59;100.00;100423.19;5136136;28;20201;-33
2021/01/04 08:59:17;;;;;;;41.63;22.37;;;;;;;2.45;100.00;100419.41;5136996;28;20193;-33
2021/01/04 09:02:24;;;;;;;37.93;21.40;;;;;;;2.40;100.00;100416.72;5134951;28;20214;-44
2021/01/04 09:05:13;;;;;;;39.30;20.43;;;;;;;2.40;100.00;100416.72;5134639;28;20607;-43
2021/01/04 09:08:01;;;;;;;37.57;21.40;;;;;;;2.74;100.00;100421.03;5134760;28;20201;-43
2021/01/04 09:10:51;;;;;;;40.80;21.73;;;;;;;2.65;100.00;100429.31;5134129;28;20560;-43
2021/01/04 09:13:39;;;;;;;44.93;25.33;;;;;;;2.88;100.00;100424.78;5134432;28;20343;-42
2021/01/04 09:16:31;;;;;;;49.97;25.87;;;;;;;2.43;100.00;100425.31;5134142;28;20209;-43
2021/01/04 09:19:25;;;;;;;33.50;21.50;;;;;;;2.75;100.00;100432.97;5134230;28;20251;-43
2021/01/04 09:22:20;;;;;;;46.37;24.27;;;;;;;2.82;100.00;100433.97;5124908;28;20207;-45
2021/01/04 09:25:20;;;;;;;37.53;21.53;;;;;;;2.97;100.00;100435.25;5120309;28;20187;-43
2021/01/04 09:28:06;;;;;;;38.93;21.60;;;;;;;2.92;100.00;100426.59;5120860;28;20476;-43
2021/01/04 09:30:53;;;;;;;34.13;20.37;;;;;;;3.02;100.00;100430.22;5119665;28;20368;-42
2021/01/04 09:33:48;;;;;;;35.77;19.47;;;;;;;3.27;100.00;100429.13;5120363;28;20283;-43
2021/01/04 09:36:37;;;;;;;33.23;19.63;;;;;;;3.30;100.00;100429.19;5119786;28;20198;-42
2021/01/04 09:39:30;;;;;;;36.70;19.73;;;;;;;3.35;100.00;100427.59;5119805;28;20471;-43
2021/01/04 09:42:24;;;;;;;33.57;19.03;;;;;;;3.16;100.00;100428.88;5119992;28;20512;-43
2021/01/04 09:45:13;;;;;;;40.10;20.67;;;;;;;3.04;100.00;100431.97;5119890;28;20195;-41
2021/01/04 09:48:05;;;;;;;35.53;20.20;;;;;;;2.83;100.00;100431.47;5120196;28;20198;-43
2021/01/04 09:50:55;;;;;;;42.10;21.43;;;;;;;2.79;100.00;100427.13;5119953;28;20302;-43
2021/01/04 09:53:56;;;;;;;49.63;25.73;;;;;;;2.82;100.00;100428.84;5119701;28;20191;-44
2021/01/04 09:56:42;;;;;;;35.40;20.63;;;;;;;2.99;100.00;100428.47;5119598;28;20205;-43
2021/01/04 09:59:29;;;;;;;40.60;22.20;;;;;;;2.85;100.00;100426.38;5119521;28;20202;-44
2021/01/04 10:02:21;;;;;;;35.00;19.87;;;;;;;2.86;100.00;100428.97;5119728;28;20291;-43
2021/01/04 10:05:09;;;;;;;38.47;21.00;;;;;;;3.05;100.00;100427.75;5119709;28;20210;-43
2021/01/04 10:07:54;;;;;;;37.47;20.87;;;;;;;3.20;100.00;100429.81;5119851;28;20698;-43
2021/01/04 10:10:51;;;;;;;35.23;20.50;;;;;;;3.31;100.00;100425.81;5118610;28;20295;-43
2021/01/04 10:13:39;;;;;;;41.57;23.67;;;;;;;3.29;100.00;100424.91;5119739;28;20199;-43
2021/01/04 10:16:27;;;;;;;39.80;23.43;;;;;;;3.26;100.00;100428.25;5119302;28;20264;-44
2021/01/04 10:19:20;;;;;;;41.50;22.43;;;;;;;3.39;100.00;100414.94;5118971;28;20276;-44
2021/01/04 10:22:11;;;;;;;40.90;24.57;;;;;;;3.43;100.00;100408.16;5119275;28;20198;-44
2021/01/04 10:25:06;;;;;;;42.13;24.20;;;;;;;3.39;100.00;100409.81;5119032;28;20591;-44
2021/01/04 10:27:55;;;;;;;41.73;23.70;;;;;;;3.45;100.00;100409.94;5119113;28;20623;-44
2021/01/04 10:30:45;;;;;;;41.70;23.00;;;;;;;3.24;100.00;100408.59;5118067;28;20267;-44
2021/01/04 10:33:34;;;;;;;38.93;21.93;;;;;;;3.40;100.00;100416.63;5117414;28;20215;-44
2021/01/04 10:36:24;;;;;;;34.60;19.57;;;;;;;3.50;100.00;100407.50;5118988;28;20260;-43
2021/01/04 10:39:18;;;;;;;37.37;20.40;;;;;;;3.43;100.00;100405.63;5119045;28;20218;-43
2021/01/04 10:42:07;;;;;;;42.23;21.30;;;;;;;3.30;100.00;100408.75;5118294;28;20256;-44
2021/01/04 10:45:04;;;;;;;37.87;20.93;;;;;;;3.29;100.00;100407.88;5118610;28;20492;-44
2021/01/04 10:47:57;;;;;;;36.27;21.37;;;;;;;3.27;100.00;100403.56;5119007;28;20195;-43
2021/01/04 10:50:46;;;;;;;39.70;21.73;;;;;;;3.34;100.00;100405.44;5118696;28;20279;-41
2021/01/04 10:53:35;;;;;;;38.97;22.10;;;;;;;3.29;100.00;100402.75;5118264;28;20199;-42
2021/01/04 10:56:39;;;;;;;41.60;22.77;;;;;;;3.57;100.00;100391.47;5118494;28;20501;-43
2021/01/04 10:59:35;;;;;;;41.13;22.80;;;;;;;3.64;100.00;100400.97;5118813;28;20193;-41
2021/01/04 11:02:22;;;;;;;44.93;25.07;;;;;;;3.31;100.00;100395.13;5118808;28;20577;-42
2021/01/04 11:05:18;;;;;;;33.30;20.43;;;;;;;3.62;100.00;100396.66;5118087;28;20607;-43
2021/01/04 11:08:16;;;;;;;40.43;22.10;;;;;;;3.47;100.00;100386.97;5118750;28;20202;-42
2021/01/04 11:11:07;;;;;;;42.60;22.00;;;;;;;3.59;100.00;100387.25;5117606;28;20686;-42
2021/01/04 11:13:53;;;;;;;36.73;21.83;;;;;;;3.53;100.00;100381.13;5117919;28;20242;-41
2021/01/04 11:16:42;;;;;;;47.77;21.07;;;;;;;3.56;100.00;100381.19;5118284;28;20203;-43
2021/01/04 11:19:31;;;;;;;41.80;23.70;;;;;;;3.44;100.00;100376.66;5117880;28;20253;-43
2021/01/04 11:22:24;;;;;;;40.13;22.83;;;;;;;3.36;100.00;100367.97;5118266;28;20287;-43
2021/01/04 11:25:12;;;;;;;39.17;22.00;;;;;;;3.53;100.00;100369.22;5118471;28;20589;-43
2021/01/04 11:27:58;;;;;;;35.03;20.70;;;;;;;3.35;100.00;100363.69;5118024;28;20547;-43
2021/01/04 11:30:46;;;;;;;36.50;21.50;;;;;;;3.42;100.00;100358.72;5117873;28;20636;-44
2021/01/04 11:33:33;;;;;;;35.20;22.10;;;;;;;3.43;100.00;100360.47;5117921;28;20244;-44
2021/01/04 11:36:20;;;;;;;36.83;22.10;;;;;;;3.19;100.00;100354.84;5118199;28;20202;-44
2021/01/04 11:39:09;;;;;;;33.17;21.43;;;;;;;3.24;100.00;100345.56;5117946;28;20271;-44
2021/01/04 11:41:55;;;;;;;33.50;20.07;;;;;;;3.28;100.00;100349.03;5118017;28;20241;-44
2021/01/04 11:44:44;;;;;;;33.50;21.07;;;;;;;3.36;100.00;100347.53;5116972;28;20500;-44
2021/01/04 11:47:33;;;;;;;36.20;21.17;;;;;;;3.50;100.00;100340.16;5116799;28;20650;-44
2021/01/04 11:50:21;;;;;;;37.57;22.80;;;;;;;3.26;100.00;100338.78;5117331;28;20636;-44
2021/01/04 11:53:08;;;;;;;34.47;20.60;;;;;;;3.28;100.00;100341.38;5117361;28;20194;-54
2021/01/04 11:55:57;;;;;;;34.33;21.13;;;;;;;3.35;100.00;100348.38;5117729;28;20332;-43
2021/01/04 11:58:46;;;;;;;31.13;19.37;;;;;;;3.04;100.00;100351.91;5116452;28;20573;-43
2021/01/04 12:01:35;;;;;;;30.80;21.47;;;;;;;3.06;100.00;100346.00;5117740;28;20249;-43
2021/01/04 12:04:24;;;;;;;34.87;20.93;;;;;;;3.22;100.00;100339.53;5117462;28;20264;-43
2021/01/04 12:07:10;;;;;;;30.83;20.20;;;;;;;3.19;100.00;100339.50;5116977;28;20294;-42
2021/01/04 12:09:59;;;;;;;32.37;19.83;;;;;;;3.35;100.00;100341.56;5117353;28;20647;-42
2021/01/04 12:12:45;;;;;;;30.10;18.43;;;;;;;3.34;100.00;100338.97;5117198;28;20197;-41
2021/01/04 12:15:32;;;;;;;25.13;16.37;;;;;;;3.12;100.00;100345.28;5117121;28;20198;-41
2021/01/04 12:18:18;;;;;;;22.53;16.53;;;;;;;3.16;100.00;100333.47;5116663;28;20553;-39
2021/01/04 12:21:07;;;;;;;22.73;16.67;;;;;;;2.81;100.00;100336.03;5117429;28;20198;-42
2021/01/04 12:23:54;;;;;;;20.73;13.97;;;;;;;3.09;100.00;100330.75;5117030;28;20198;-39
2021/01/04 12:26:40;;;;;;;17.10;13.17;;;;;;;3.10;100.00;100340.16;5117215;28;20344;-39
2021/01/04 12:29:27;;;;;;;18.13;14.73;;;;;;;3.11;100.00;100329.09;5116958;28;20256;-39
2021/01/04 12:32:14;;;;;;;15.40;13.10;;;;;;;3.25;100.00;100334.50;5116512;28;20221;-41
2021/01/04 12:35:00;;;;;;;19.03;13.93;;;;;;;3.15;100.00;100334.28;5116462;28;20480;-41
2021/01/04 12:37:47;;;;;;;15.93;12.57;;;;;;;3.28;100.00;100334.56;5117089;28;20198;-40
2021/01/04 12:40:35;;;;;;;15.47;12.23;;;;;;;3.06;100.00;100325.56;5117005;28;20236;-42
2021/01/04 12:43:21;;;;;;;15.90;12.37;;;;;;;2.93;100.00;100320.16;5116976;28;20191;-40
2021/01/04 12:46:09;;;;;;;20.27;14.00;;;;;;;3.21;100.00;100311.38;5116507;28;20199;-42
2021/01/04 12:48:55;;;;;;;16.33;12.40;;;;;;;3.42;100.00;100317.81;5116669;28;20686;-39
2021/01/04 12:51:45;;;;;;;14.40;11.70;;;;;;;3.04;100.00;100304.22;5116451;28;20579;-41
2021/01/04 12:54:33;;;;;;;18.67;14.03;;;;;;;3.35;100.00;100310.88;5115936;28;20198;-42
2021/01/04 12:57:19;;;;;;;14.93;11.97;;;;;;;3.01;100.00;100309.25;5118239;28;20206;-42
2021/01/04 13:00:08;;;;;;;15.47;12.67;;;;;;;3.00;100.00;100304.13;5120505;28;20194;-38
2021/01/04 13:02:57;;;;;;;15.03;12.27;;;;;;;2.83;100.00;100303.75;5120595;28;20202;-41
2021/01/04 13:05:43;;;;;;;14.03;12.27;;;;;;;2.97;100.00;100307.50;5120124;28;20214;-40
2021/01/04 13:08:29;;;;;;;16.57;13.07;;;;;;;3.04;100.00;100305.91;5119782;28;20283;-40
2021/01/04 13:11:15;;;;;;;16.90;13.80;;;;;;;3.33;100.00;100309.97;5119631;28;20364;-41
2021/01/04 13:14:07;;;;;;;12.83;11.23;;;;;;;3.03;100.00;100296.53;5120446;28;20198;-41
2021/01/04 13:16:56;;;;;;;14.90;12.00;;;;;;;3.20;100.00;100307.97;5120045;28;20198;-41
2021/01/04 13:19:42;;;;;;;13.37;11.83;;;;;;;3.14;100.00;100305.31;5120317;28;20241;-39